Airfield :
LOGIN :

Register | Disclaimer

   EN    FR    IT 

 










Legend :    VFR   Marginal VFR   IFR   Intensive IFR   Very Intensive IFR
Visi :
Ceiling :
>= 8 km
>= 3000ft
5 to 8 km
1000 to 3000 ft
1500m to 5 km
500 to 1000 ft
800 to 1500m
200 to 500 ft
< 800m
< 200 ft
Symbols :   Thunderstorms  Fog  Heavy snow  Heavy precipitations  Wind > 20 kt
SIGMETs :     Misc.  Thunderstorms  Icing  Turbulence  Mountain Waves  Volcanic Ashes






- Airport Elevation : 79 ft
- IATA code : NSY


LICZ - Sigonella (Mil) Catania

CURRENT METAR :
  • 250755Z 10020KT 9999 SCT120 26/17 Q1011

EXPIRED METARs :
  • 250655Z 11012KT 9999 SCT120 26/14 Q1011 RMK BKN BKN180 VIS MIN 9999 WIND THR28 11011KT WIND THR10 /////KT A2988 BLU
  • 250555Z 02006KT 9999 FEW030 SCT130 23/19 Q1011 RMK SCT VIS MIN 9999 WIND THR28 03008KT WIND THR10 /////KT A2988 BLU
  • 250455Z 02002KT 9999 SCT110 22/22 Q1011 RMK BKN SCT170 VIS MIN 9999 WIND THR28 03003KT WIND THR10 /////KT A2988 BLU
  • 250355Z 08003KT 9999 SCT100 23/23 Q1011 RMK BKN SCT170 VIS MIN 9999 WIND THR28 07004KT WIND THR10 /////KT A2986 BLU
  • 250255Z 33002KT 9999 SCT100 23/23 Q1011

TAF TAF LICZ
Valid from the 25 at 06:00 until the 26 at 06:00 UTC


250500Z 2506/2606 VRB03KT 9999 SCT100
PROB30
TEMPO 2506/2510 RA SCT030 SCT090
BECMG 2507/2509 10010KT
TEMPO 2509/2514 10020KT



MET'MAP, your aeronautical weather chart ! - Copyright ORBIFLY December 2007 - Disclaimer

ORBIFLY MET'MAP TEAM :

Programming & Development : Alexandra Zaïnal
Original concept : Baudouin d'Aumeries
Technical & hardware support : Manuel Goepfert
Assistance : Marc-Olivier Méhu




SOURCES & CREDITS :

   NOAA